Time;durP1;ratioP1;P1;durP2;ratioP2;P2;SDS_P1;SDS_P2;PMS_P1;PMS_P2;Temp;Humidity;BMP_temperature;BMP_pressure;BME280_temperature;BME280_humidity;BME280_pressure;Samples;Min_cycle;Max_cycle;Signal;HPM_P1;HPM_P2
2021/12/15 00:01:58;;;;;;;2.00;1.90;;;;;;;;;;5073574;28;20196;-94
2021/12/15 00:04:26;;;;;;;2.20;2.10;;;;;;;;;;5073450;28;20193;-95
2021/12/15 00:06:53;;;;;;;2.37;2.17;;;;;;;;;;5073438;28;20197;-94
2021/12/15 00:09:20;;;;;;;2.83;2.50;;;;;;;;;;5073622;28;20607;-94
2021/12/15 00:11:48;;;;;;;2.47;2.27;;;;;;;;;;5073502;28;20251;-94
2021/12/15 00:14:18;;;;;;;2.47;2.27;;;;;;;;;;5073403;28;20185;-93
2021/12/15 00:16:46;;;;;;;2.63;2.33;;;;;;;;;;5073530;28;20292;-94
2021/12/15 00:19:14;;;;;;;3.40;3.07;;;;;;;;;;5073487;28;20266;-94
2021/12/15 00:21:41;;;;;;;3.77;3.40;;;;;;;;;;5073562;28;20193;-94
2021/12/15 00:24:09;;;;;;;3.80;3.27;;;;;;;;;;5073442;28;20634;-94
2021/12/15 00:26:37;;;;;;;2.73;2.53;;;;;;;;;;5073248;28;20626;-94
2021/12/15 00:29:06;;;;;;;3.17;2.87;;;;;;;;;;5073204;28;20204;-94
2021/12/15 00:31:35;;;;;;;2.90;2.70;;;;;;;;;;5073362;28;20197;-94
2021/12/15 00:34:04;;;;;;;2.93;2.73;;;;;;;;;;5073169;28;20192;-94
2021/12/15 00:36:32;;;;;;;2.87;2.57;;;;;;;;;;5073061;28;20246;-94
2021/12/15 00:38:59;;;;;;;2.43;2.23;;;;;;;;;;5073105;28;20240;-93
2021/12/15 00:41:26;;;;;;;3.07;2.27;;;;;;;;;;5072574;28;20185;-93
2021/12/15 00:43:54;;;;;;;2.43;2.23;;;;;;;;;;5073174;28;20204;-94
2021/12/15 00:46:21;;;;;;;2.90;2.43;;;;;;;;;;5073113;28;20247;-93
2021/12/15 00:48:50;;;;;;;2.50;2.30;;;;;;;;;;5073235;28;20665;-93
2021/12/15 00:51:17;;;;;;;3.10;2.80;;;;;;;;;;5072772;28;20316;-94
2021/12/15 00:53:46;;;;;;;3.43;3.00;;;;;;;;;;5072987;28;20653;-94
2021/12/15 00:56:14;;;;;;;4.30;3.43;;;;;;;;;;5072994;28;20201;-94
2021/12/15 00:58:41;;;;;;;3.03;2.67;;;;;;;;;;5073096;28;20209;-94
2021/12/15 01:01:08;;;;;;;2.50;2.30;;;;;;;;;;5072883;28;20205;-94
2021/12/15 01:03:36;;;;;;;2.50;2.30;;;;;;;;;;5073038;28;20661;-93
2021/12/15 01:06:10;;;;;;;3.53;2.40;;;;;;;;;;5072896;28;20207;-93
2021/12/15 01:08:42;;;;;;;3.97;2.90;;;;;;;;;;5072971;28;20200;-94
2021/12/15 01:11:17;;;;;;;4.33;3.67;;;;;;;;;;5072844;28;20275;-94
2021/12/15 01:22:27;;;;;;;2.53;2.30;;;;;;;;;;5011411;28;20183;-94
2021/12/15 01:24:57;;;;;;;4.17;3.23;;;;;;;;;;5061298;28;20727;-94
2021/12/15 01:27:25;;;;;;;4.27;3.23;;;;;;;;;;5072609;28;20719;-94
2021/12/15 01:29:52;;;;;;;3.70;2.83;;;;;;;;;;5072490;28;20272;-93
2021/12/15 01:32:20;;;;;;;4.13;3.37;;;;;;;;;;5072928;28;20200;-94
2021/12/15 01:34:47;;;;;;;2.87;2.67;;;;;;;;;;5072326;28;20220;-93
2021/12/15 01:37:16;;;;;;;3.50;3.07;;;;;;;;;;5072400;28;20233;-94
2021/12/15 01:39:46;;;;;;;3.73;3.33;;;;;;;;;;5072592;28;20197;-94
2021/12/15 01:42:13;;;;;;;3.93;2.60;;;;;;;;;;5072489;28;20193;-93
2021/12/15 01:47:26;;;;;;;3.67;2.80;;;;;;;;;;5072363;28;20235;-93
2021/12/15 01:49:55;;;;;;;5.57;2.60;;;;;;;;;;5072189;28;20311;-93
2021/12/15 01:52:25;;;;;;;3.93;3.23;;;;;;;;;;5072353;28;20193;-94
2021/12/15 01:54:57;;;;;;;3.63;2.97;;;;;;;;;;5075571;28;20189;-93
2021/12/15 01:57:26;;;;;;;3.20;2.90;;;;;;;;;;5075948;28;20227;-93
2021/12/15 01:59:54;;;;;;;5.33;3.80;;;;;;;;;;5075903;28;20197;-93
2021/12/15 02:02:22;;;;;;;7.67;4.37;;;;;;;;;;5075765;28;20251;-92
2021/12/15 02:04:51;;;;;;;5.60;3.90;;;;;;;;;;5075893;28;20200;-93
2021/12/15 02:07:20;;;;;;;4.30;3.73;;;;;;;;;;5076059;28;20228;-94
2021/12/15 02:12:36;;;;;;;5.60;2.60;;;;;;;;;;5074401;28;20265;-94
2021/12/15 02:15:09;;;;;;;2.43;2.23;;;;;;;;;;5075985;28;20195;-94
2021/12/15 02:17:37;;;;;;;2.40;2.20;;;;;;;;;;5075766;28;20209;-94
2021/12/15 02:20:06;;;;;;;3.17;2.63;;;;;;;;;;5075585;28;20251;-93
2021/12/15 02:22:35;;;;;;;6.23;4.10;;;;;;;;;;5075496;28;20204;-93
2021/12/15 02:25:04;;;;;;;3.53;3.00;;;;;;;;;;5075486;28;20197;-94
2021/12/15 02:27:35;;;;;;;3.70;3.27;;;;;;;;;;5075370;28;20197;-94
2021/12/15 02:30:18;;;;;;;2.90;2.70;;;;;;;;;;5075487;28;20272;-95
2021/12/15 02:32:57;;;;;;;2.90;2.60;;;;;;;;;;5075442;28;20193;-94
2021/12/15 02:38:10;;;;;;;2.80;2.60;;;;;;;;;;5075653;28;20208;-94
2021/12/15 02:40:39;;;;;;;2.90;2.60;;;;;;;;;;5075533;28;20565;-94
2021/12/15 02:43:07;;;;;;;3.50;3.20;;;;;;;;;;5075117;28;20197;-95
2021/12/15 02:45:34;;;;;;;2.40;2.10;;;;;;;;;;5075136;28;20193;-95
2021/12/15 02:48:01;;;;;;;2.47;2.27;;;;;;;;;;5075010;28;20233;-95
2021/12/15 02:50:30;;;;;;;2.73;2.53;;;;;;;;;;5074765;28;20229;-95
2021/12/15 02:52:59;;;;;;;2.50;2.30;;;;;;;;;;5075200;28;20559;-94
2021/12/15 02:55:29;;;;;;;2.67;2.47;;;;;;;;;;5074885;28;20193;-95
2021/12/15 02:57:56;;;;;;;2.70;2.50;;;;;;;;;;5074742;28;20370;-94
2021/12/15 03:00:29;;;;;;;2.80;2.50;;;;;;;;;;5074887;28;20221;-95
2021/12/15 03:03:22;;;;;;;3.13;2.60;;;;;;;;;;5074830;28;20181;-94
2021/12/15 03:05:56;;;;;;;3.33;3.03;;;;;;;;;;5075012;28;20604;-94
2021/12/15 03:08:35;;;;;;;3.07;2.70;;;;;;;;;;5075123;28;20193;-95
2021/12/15 03:16:33;;;;;;;3.17;2.70;;;;;;;;;;5093454;28;20227;-96
2021/12/15 03:19:01;;;;;;;2.70;2.50;;;;;;;;;;5094503;28;20316;-96
2021/12/15 03:21:28;;;;;;;4.17;3.40;;;;;;;;;;5095359;28;20224;-96
2021/12/15 03:23:58;;;;;;;3.37;2.90;;;;;;;;;;5095073;28;20204;-94
2021/12/15 03:26:32;;;;;;;7.30;5.63;;;;;;;;;;5094787;28;20638;-96
2021/12/15 03:34:47;;;;;;;22.53;16.70;;;;;;;;;;5094894;28;20176;-96
2021/12/15 03:37:26;;;;;;;44.50;25.10;;;;;;;;;;5095834;28;20303;-96
2021/12/15 03:39:56;;;;;;;64.60;39.87;;;;;;;;;;5094856;28;20184;-96
2021/12/15 03:42:32;;;;;;;10.67;9.20;;;;;;;;;;5094169;28;20286;-96
2021/12/15 03:45:00;;;;;;;8.40;6.50;;;;;;;;;;5094064;28;20271;-95
2021/12/15 03:47:30;;;;;;;6.33;4.67;;;;;;;;;;5095020;28;20199;-96
2021/12/15 03:49:59;;;;;;;4.07;3.30;;;;;;;;;;5094609;28;20232;-96
2021/12/15 03:52:27;;;;;;;3.77;3.47;;;;;;;;;;5094845;28;20196;-96
2021/12/15 03:54:55;;;;;;;2.33;2.13;;;;;;;;;;5095370;28;20207;-96
2021/12/15 03:57:24;;;;;;;2.53;2.33;;;;;;;;;;5095626;28;20684;-96
2021/12/15 03:59:53;;;;;;;2.50;2.30;;;;;;;;;;5095023;28;20206;-96
2021/12/15 04:02:21;;;;;;;2.93;2.63;;;;;;;;;;5095015;28;20222;-96
2021/12/15 04:04:50;;;;;;;2.57;2.37;;;;;;;;;;5094490;28;20219;-94
2021/12/15 04:07:17;;;;;;;35.50;24.93;;;;;;;;;;5093914;28;20207;-94
2021/12/15 04:09:46;;;;;;;16.77;13.07;;;;;;;;;;5094098;28;20246;-96
2021/12/15 04:12:17;;;;;;;3.60;3.30;;;;;;;;;;5095768;28;20204;-93
2021/12/15 04:14:46;;;;;;;2.67;2.47;;;;;;;;;;5093185;28;20202;-94
2021/12/15 04:17:30;;;;;;;3.07;2.77;;;;;;;;;;5093138;28;20199;-95
2021/12/15 04:20:00;;;;;;;2.80;2.53;;;;;;;;;;5093402;28;20192;-95
2021/12/15 04:22:28;;;;;;;3.50;3.00;;;;;;;;;;5093817;28;20272;-94
2021/12/15 04:24:57;;;;;;;2.93;2.60;;;;;;;;;;5093674;28;20208;-95
2021/12/15 04:27:24;;;;;;;3.97;2.77;;;;;;;;;;5093392;28;20328;-94
2021/12/15 04:29:54;;;;;;;2.80;2.60;;;;;;;;;;5093690;28;20691;-95
2021/12/15 04:32:26;;;;;;;3.60;3.30;;;;;;;;;;5093256;28;20204;-94
2021/12/15 04:34:53;;;;;;;2.87;2.57;;;;;;;;;;5093212;28;20184;-95
2021/12/15 04:37:20;;;;;;;2.97;2.67;;;;;;;;;;5093151;28;20200;-94
2021/12/15 04:39:47;;;;;;;3.13;2.83;;;;;;;;;;5093163;28;20192;-94
2021/12/15 04:42:17;;;;;;;3.20;2.90;;;;;;;;;;5093392;28;20223;-95
2021/12/15 04:44:44;;;;;;;5.60;3.97;;;;;;;;;;5093404;28;20200;-93
2021/12/15 04:47:14;;;;;;;5.43;3.50;;;;;;;;;;5093159;28;20196;-94
2021/12/15 04:49:43;;;;;;;4.43;3.83;;;;;;;;;;5093164;28;20720;-93
2021/12/15 04:52:12;;;;;;;4.47;4.07;;;;;;;;;;5093065;28;20192;-94
2021/12/15 04:54:40;;;;;;;10.97;6.97;;;;;;;;;;5092949;28;20201;-94
2021/12/15 04:57:07;;;;;;;8.33;6.67;;;;;;;;;;5093265;28;20211;-94
2021/12/15 04:59:34;;;;;;;4.30;3.83;;;;;;;;;;5092747;28;20284;-94
2021/12/15 05:02:02;;;;;;;4.73;4.10;;;;;;;;;;5093118;28;20192;-94
2021/12/15 05:04:31;;;;;;;5.03;4.50;;;;;;;;;;5086517;28;20199;-93
2021/12/15 05:06:58;;;;;;;5.27;4.60;;;;;;;;;;5073028;28;20232;-93
2021/12/15 05:09:26;;;;;;;5.07;3.77;;;;;;;;;;5072694;28;20193;-93
2021/12/15 05:11:54;;;;;;;5.23;4.50;;;;;;;;;;5073148;28;20223;-93
2021/12/15 05:14:22;;;;;;;5.45;4.95;;;;;;;;;;5071933;28;20936;-94
2021/12/15 05:16:51;;;;;;;4.83;4.33;;;;;;;;;;5072693;28;20734;-94
2021/12/15 05:19:18;;;;;;;3.97;3.67;;;;;;;;;;5072586;28;20621;-95
2021/12/15 05:21:49;;;;;;;4.73;4.30;;;;;;;;;;5072769;28;20200;-93
2021/12/15 05:24:30;;;;;;;4.93;4.43;;;;;;;;;;5072818;28;20189;-94
2021/12/15 05:26:59;;;;;;;5.10;4.60;;;;;;;;;;5073278;28;20189;-94
2021/12/15 05:29:26;;;;;;;5.50;5.00;;;;;;;;;;5076804;28;20270;-94
2021/12/15 05:31:55;;;;;;;5.13;4.07;;;;;;;;;;5076513;28;20185;-94
2021/12/15 05:34:22;;;;;;;5.63;5.03;;;;;;;;;;5076683;28;20553;-94
2021/12/15 05:36:52;;;;;;;6.87;5.20;;;;;;;;;;5076551;28;20228;-94
2021/12/15 05:39:19;;;;;;;5.60;4.70;;;;;;;;;;5076628;28;20221;-94
2021/12/15 05:41:47;;;;;;;4.90;4.50;;;;;;;;;;5076344;28;20190;-94
2021/12/15 05:44:14;;;;;;;5.50;4.70;;;;;;;;;;5076445;28;20200;-94
2021/12/15 05:46:42;;;;;;;4.63;4.23;;;;;;;;;;5076710;28;20200;-94
2021/12/15 05:49:09;;;;;;;5.90;4.37;;;;;;;;;;5076210;28;20200;-93
2021/12/15 05:51:37;;;;;;;4.47;4.00;;;;;;;;;;5076439;28;20268;-94
2021/12/15 05:54:06;;;;;;;5.43;4.30;;;;;;;;;;5076132;28;20648;-93
2021/12/15 05:56:34;;;;;;;4.93;4.33;;;;;;;;;;5076036;28;20201;-94
2021/12/15 05:59:02;;;;;;;4.77;4.03;;;;;;;;;;5075885;28;20771;-94
2021/12/15 06:01:29;;;;;;;4.07;3.77;;;;;;;;;;5076319;28;20586;-93
2021/12/15 06:03:57;;;;;;;5.10;4.07;;;;;;;;;;5076329;28;20193;-94
2021/12/15 06:06:24;;;;;;;5.60;4.50;;;;;;;;;;5076081;28;20669;-94
2021/12/15 06:08:51;;;;;;;5.93;4.20;;;;;;;;;;5076360;28;20700;-94
2021/12/15 06:11:20;;;;;;;4.70;4.30;;;;;;;;;;5076155;28;20189;-93
2021/12/15 06:13:50;;;;;;;5.23;4.50;;;;;;;;;;5075936;28;20204;-94
2021/12/15 06:16:18;;;;;;;5.00;4.60;;;;;;;;;;5075657;28;20208;-94
2021/12/15 06:18:47;;;;;;;5.43;4.90;;;;;;;;;;5075694;28;20213;-94
2021/12/15 06:21:14;;;;;;;6.07;4.33;;;;;;;;;;5075889;28;20189;-94
2021/12/15 06:23:42;;;;;;;5.33;4.83;;;;;;;;;;5075407;28;20288;-94
2021/12/15 06:26:09;;;;;;;6.63;5.10;;;;;;;;;;5075778;28;20220;-94
2021/12/15 06:28:39;;;;;;;7.17;6.47;;;;;;;;;;5075666;28;20232;-94
2021/12/15 06:31:08;;;;;;;23.87;15.63;;;;;;;;;;5075681;28;20200;-93
2021/12/15 06:33:38;;;;;;;36.50;23.13;;;;;;;;;;5075350;28;20197;-94
2021/12/15 06:36:06;;;;;;;9.13;7.10;;;;;;;;;;5075870;28;20201;-94
2021/12/15 06:38:39;;;;;;;9.33;7.10;;;;;;;;;;5075049;28;20278;-93
2021/12/15 06:41:07;;;;;;;6.80;6.10;;;;;;;;;;5075177;28;20213;-93
2021/12/15 06:43:39;;;;;;;9.23;7.20;;;;;;;;;;5075192;28;20201;-93
2021/12/15 06:46:26;;;;;;;11.33;8.60;;;;;;;;;;5075211;28;20193;-94
2021/12/15 06:57:34;;;;;;;8.57;6.43;;;;;;;;;;5075024;28;20244;-93
2021/12/15 07:00:02;;;;;;;10.37;8.20;;;;;;;;;;5074916;28;20713;-94
2021/12/15 07:02:31;;;;;;;10.87;8.07;;;;;;;;;;5075289;28;20212;-94
2021/12/15 07:04:59;;;;;;;7.93;7.13;;;;;;;;;;5074673;28;20193;-93
2021/12/15 07:07:26;;;;;;;8.17;7.37;;;;;;;;;;5075918;28;20247;-94
2021/12/15 07:09:54;;;;;;;6.37;5.33;;;;;;;;;;5074538;28;20193;-94
2021/12/15 07:12:21;;;;;;;6.23;5.23;;;;;;;;;;5074824;28;20637;-95
2021/12/15 07:14:48;;;;;;;5.73;4.73;;;;;;;;;;5074825;28;20605;-94
2021/12/15 07:17:21;;;;;;;7.03;5.33;;;;;;;;;;5074573;28;20558;-94
2021/12/15 07:20:06;;;;;;;21.90;13.40;;;;;;;;;;5073879;28;20209;-93
2021/12/15 07:22:43;;;;;;;10.20;7.43;;;;;;;;;;5074947;28;20181;-93
2021/12/15 07:25:11;;;;;;;7.60;6.80;;;;;;;;;;5074667;28;20189;-94
2021/12/15 07:27:39;;;;;;;9.10;7.73;;;;;;;;;;5074478;28;20205;-94
2021/12/15 07:30:07;;;;;;;9.97;6.93;;;;;;;;;;5074427;28;20255;-94
2021/12/15 07:32:35;;;;;;;6.50;5.90;;;;;;;;;;5074158;28;20258;-94
2021/12/15 07:35:05;;;;;;;8.03;6.60;;;;;;;;;;5074411;28;20616;-94
2021/12/15 07:37:32;;;;;;;7.63;6.17;;;;;;;;;;5074350;28;20661;-94
2021/12/15 07:40:00;;;;;;;9.53;8.57;;;;;;;;;;5074185;28;20217;-94
2021/12/15 07:42:34;;;;;;;7.20;6.37;;;;;;;;;;5074024;28;20304;-94
2021/12/15 07:45:02;;;;;;;7.60;5.37;;;;;;;;;;5074386;28;20181;-94
2021/12/15 07:47:30;;;;;;;7.47;6.00;;;;;;;;;;5074268;28;20242;-94
2021/12/15 07:50:02;;;;;;;10.60;7.60;;;;;;;;;;5073993;28;20282;-94
2021/12/15 07:52:31;;;;;;;7.40;5.67;;;;;;;;;;5073286;28;20185;-95
2021/12/15 07:54:58;;;;;;;8.63;7.10;;;;;;;;;;5073907;28;20716;-93
2021/12/15 07:57:28;;;;;;;9.53;7.80;;;;;;;;;;5073957;28;20197;-95
2021/12/15 07:59:57;;;;;;;8.33;7.37;;;;;;;;;;5073659;28;20701;-94
2021/12/15 08:06:24;;;;;;;11.37;9.07;;;;;;;;;;5074096;28;20169;-95
2021/12/15 08:08:54;;;;;;;12.37;11.07;;;;;;;;;;5073820;28;20188;-94
2021/12/15 08:11:22;;;;;;;7.27;6.13;;;;;;;;;;5073324;28;20201;-94
2021/12/15 08:13:49;;;;;;;7.83;6.13;;;;;;;;;;5073690;28;20688;-95
2021/12/15 08:16:19;;;;;;;7.90;6.10;;;;;;;;;;5073658;28;20189;-95
2021/12/15 08:18:46;;;;;;;7.40;6.20;;;;;;;;;;5073373;28;20716;-94
2021/12/15 08:21:14;;;;;;;8.30;6.73;;;;;;;;;;5073218;28;20549;-95
2021/12/15 08:23:42;;;;;;;6.83;5.90;;;;;;;;;;5073744;28;20189;-94
2021/12/15 08:26:10;;;;;;;7.33;5.87;;;;;;;;;;5074858;28;20193;-94
2021/12/15 08:28:38;;;;;;;7.57;6.00;;;;;;;;;;5073674;28;20270;-95
2021/12/15 08:31:06;;;;;;;8.03;5.40;;;;;;;;;;5073659;28;20212;-94
2021/12/15 08:33:34;;;;;;;6.80;6.10;;;;;;;;;;5073461;28;20209;-95
2021/12/15 08:36:04;;;;;;;6.90;5.83;;;;;;;;;;5074098;28;20587;-95
2021/12/15 08:38:34;;;;;;;6.77;6.00;;;;;;;;;;5074776;28;20201;-94
2021/12/15 08:41:02;;;;;;;8.13;6.07;;;;;;;;;;5075055;28;20207;-95
2021/12/15 08:43:31;;;;;;;6.70;5.30;;;;;;;;;;5073445;28;20189;-95
2021/12/15 08:46:02;;;;;;;7.13;4.90;;;;;;;;;;5073560;28;20200;-95
2021/12/15 08:48:30;;;;;;;6.53;5.70;;;;;;;;;;5073532;28;20268;-94
2021/12/15 08:50:57;;;;;;;7.00;5.77;;;;;;;;;;5073064;28;20225;-95
2021/12/15 08:53:25;;;;;;;7.07;5.40;;;;;;;;;;5073335;28;20196;-95
2021/12/15 08:55:53;;;;;;;5.33;4.83;;;;;;;;;;5072916;28;20204;-94
2021/12/15 08:58:21;;;;;;;6.63;5.17;;;;;;;;;;5072835;28;20208;-95
2021/12/15 09:00:52;;;;;;;13.73;9.00;;;;;;;;;;5073264;28;20228;-95
2021/12/15 09:03:20;;;;;;;6.93;5.20;;;;;;;;;;5072903;28;20634;-95
2021/12/15 09:05:49;;;;;;;7.77;5.83;;;;;;;;;;5072921;28;20219;-94
2021/12/15 09:08:16;;;;;;;7.10;5.97;;;;;;;;;;5072840;28;20197;-94
2021/12/15 09:10:45;;;;;;;7.27;5.43;;;;;;;;;;5072814;28;20197;-95
2021/12/15 09:13:13;;;;;;;6.53;5.83;;;;;;;;;;5073666;28;20266;-95
2021/12/15 09:15:41;;;;;;;8.17;7.37;;;;;;;;;;5072763;28;20200;-95
2021/12/15 09:18:12;;;;;;;7.27;6.50;;;;;;;;;;5072704;28;20205;-95
2021/12/15 09:20:42;;;;;;;7.37;6.00;;;;;;;;;;5073030;28;20209;-96
2021/12/15 09:23:13;;;;;;;6.30;5.70;;;;;;;;;;5073063;28;20254;-95
2021/12/15 09:25:41;;;;;;;9.47;8.57;;;;;;;;;;5072981;28;20280;-95
2021/12/15 09:28:08;;;;;;;6.83;6.13;;;;;;;;;;5073170;28;20205;-95
2021/12/15 09:30:43;;;;;;;6.40;5.80;;;;;;;;;;5073262;28;20205;-95
2021/12/15 09:33:12;;;;;;;7.10;6.10;;;;;;;;;;5072753;28;20196;-95
2021/12/15 09:35:40;;;;;;;5.40;4.80;;;;;;;;;;5072640;28;20193;-95
2021/12/15 09:38:13;;;;;;;7.03;5.90;;;;;;;;;;5072983;28;20204;-95
2021/12/15 09:40:41;;;;;;;6.43;5.83;;;;;;;;;;5072920;28;20217;-96
2021/12/15 09:43:09;;;;;;;5.03;4.53;;;;;;;;;;5072663;28;20681;-96
2021/12/15 09:45:45;;;;;;;6.07;5.57;;;;;;;;;;5072492;28;20284;-95
2021/12/15 10:02:26;;;;;;;5.60;5.10;;;;;;;;;;5031848;28;20207;-94
2021/12/15 10:05:05;;;;;;;7.13;5.33;;;;;;;;;;5072927;28;20201;-94
2021/12/15 10:10:46;;;;;;;6.13;5.53;;;;;;;;;;5073133;28;20224;-95
2021/12/15 10:18:55;;;;;;;4.70;4.23;;;;;;;;;;5076113;28;20222;-94
2021/12/15 10:21:28;;;;;;;9.27;5.23;;;;;;;;;;5075812;28;20219;-95
2021/12/15 10:23:56;;;;;;;6.60;4.90;;;;;;;;;;5075853;28;20248;-95
2021/12/15 10:26:24;;;;;;;5.43;4.33;;;;;;;;;;5075610;28;20197;-94
2021/12/15 10:28:53;;;;;;;6.03;5.43;;;;;;;;;;5075590;28;20233;-95
2021/12/15 10:31:23;;;;;;;5.13;4.30;;;;;;;;;;5075400;28;20200;-94
2021/12/15 10:33:54;;;;;;;5.87;4.83;;;;;;;;;;5075528;28;20638;-95
2021/12/15 10:36:25;;;;;;;6.70;4.73;;;;;;;;;;5076324;28;20231;-94
2021/12/15 10:38:54;;;;;;;5.47;4.70;;;;;;;;;;5075445;28;20299;-95
2021/12/15 10:41:23;;;;;;;5.87;4.47;;;;;;;;;;5075317;28;20224;-96
2021/12/15 10:43:54;;;;;;;4.83;4.33;;;;;;;;;;5075261;28;20280;-95
2021/12/15 10:46:25;;;;;;;5.80;5.30;;;;;;;;;;5075355;28;20689;-94
2021/12/15 10:48:54;;;;;;;5.33;4.70;;;;;;;;;;5075452;28;20561;-95
2021/12/15 10:51:30;;;;;;;5.00;4.40;;;;;;;;;;5075308;28;20562;-94
2021/12/15 10:53:59;;;;;;;4.87;4.33;;;;;;;;;;5075018;28;20181;-94
2021/12/15 10:56:29;;;;;;;5.93;4.83;;;;;;;;;;5074870;28;20251;-95
2021/12/15 10:58:59;;;;;;;5.83;4.80;;;;;;;;;;5075470;28;20193;-95
2021/12/15 11:01:44;;;;;;;8.57;6.33;;;;;;;;;;5075332;28;20254;-96
2021/12/15 11:04:39;;;;;;;5.83;5.33;;;;;;;;;;5075179;28;20181;-94
2021/12/15 11:07:21;;;;;;;7.60;6.73;;;;;;;;;;5051385;28;20193;-94
2021/12/15 11:09:51;;;;;;;8.23;5.83;;;;;;;;;;5074981;28;20197;-95
2021/12/15 11:12:21;;;;;;;5.23;4.73;;;;;;;;;;5074812;28;20201;-95
2021/12/15 11:14:51;;;;;;;5.80;5.30;;;;;;;;;;5075034;28;20204;-95
2021/12/15 11:17:21;;;;;;;6.50;4.93;;;;;;;;;;5074637;28;20197;-94
2021/12/15 11:19:58;;;;;;;6.20;5.20;;;;;;;;;;5074425;28;20221;-96
2021/12/15 11:22:57;;;;;;;5.47;4.77;;;;;;;;;;5074636;28;20223;-95
2021/12/15 11:25:37;;;;;;;5.83;4.80;;;;;;;;;;5074692;28;20205;-94
2021/12/15 11:28:09;;;;;;;6.17;5.13;;;;;;;;;;5074735;28;20185;-95
2021/12/15 11:30:41;;;;;;;5.07;4.57;;;;;;;;;;5075483;28;20223;-94
2021/12/15 11:33:10;;;;;;;4.83;4.33;;;;;;;;;;5074510;28;20632;-93
2021/12/15 11:35:40;;;;;;;7.13;6.43;;;;;;;;;;5074460;28;20224;-94
2021/12/15 11:38:14;;;;;;;5.47;4.97;;;;;;;;;;5074857;28;20288;-94
2021/12/15 11:40:48;;;;;;;6.17;4.90;;;;;;;;;;5074088;28;20216;-95
2021/12/15 11:43:32;;;;;;;5.73;5.20;;;;;;;;;;5074379;28;20224;-95
2021/12/15 11:45:59;;;;;;;7.67;6.87;;;;;;;;;;5073140;28;20296;-94
2021/12/15 11:48:29;;;;;;;6.47;5.77;;;;;;;;;;5074262;28;20200;-94
2021/12/15 11:50:59;;;;;;;5.87;4.93;;;;;;;;;;5073979;28;20229;-94
2021/12/15 11:53:38;;;;;;;5.67;5.07;;;;;;;;;;5074180;28;20185;-94
2021/12/15 11:56:28;;;;;;;7.73;6.03;;;;;;;;;;5073957;28;20319;-95
2021/12/15 11:59:00;;;;;;;5.83;4.60;;;;;;;;;;5071956;28;20570;-93
2021/12/15 12:01:53;;;;;;;4.80;4.40;;;;;;;;;;5073763;28;20221;-94
2021/12/15 12:04:31;;;;;;;4.63;4.23;;;;;;;;;;5071794;28;20193;-95
2021/12/15 12:07:12;;;;;;;4.97;4.47;;;;;;;;;;5073754;28;20276;-96
2021/12/15 12:09:43;;;;;;;6.10;5.30;;;;;;;;;;5073707;28;20283;-94
2021/12/15 12:12:11;;;;;;;7.47;5.30;;;;;;;;;;5073655;28;20197;-94
2021/12/15 12:14:42;;;;;;;5.23;4.50;;;;;;;;;;5073726;28;20207;-94
2021/12/15 12:17:13;;;;;;;4.97;4.13;;;;;;;;;;5073746;28;20289;-94
2021/12/15 12:19:55;;;;;;;4.73;4.33;;;;;;;;;;5074142;28;20331;-94
2021/12/15 12:22:24;;;;;;;4.87;4.47;;;;;;;;;;5073521;28;20617;-94
2021/12/15 12:24:54;;;;;;;4.27;3.87;;;;;;;;;;5073460;28;20196;-95
2021/12/15 12:27:23;;;;;;;5.23;4.73;;;;;;;;;;5073377;28;20258;-94
2021/12/15 12:29:53;;;;;;;4.10;3.70;;;;;;;;;;5073821;28;20201;-93
2021/12/15 12:32:21;;;;;;;5.20;4.63;;;;;;;;;;5073737;28;20223;-95
2021/12/15 12:34:49;;;;;;;5.37;3.90;;;;;;;;;;5073128;28;20735;-95
2021/12/15 12:37:17;;;;;;;5.53;4.27;;;;;;;;;;5072720;28;20283;-94
2021/12/15 12:39:48;;;;;;;7.87;5.60;;;;;;;;;;5073422;28;20624;-95
2021/12/15 12:42:35;;;;;;;4.80;4.27;;;;;;;;;;5073173;28;20243;-94
2021/12/15 12:45:14;;;;;;;5.77;5.07;;;;;;;;;;5073089;28;20267;-94
2021/12/15 12:47:56;;;;;;;4.47;4.07;;;;;;;;;;5073283;28;20632;-94
2021/12/15 13:01:33;;;;;;;4.10;3.70;;;;;;;;;;5072928;28;20282;-95
2021/12/15 13:04:11;;;;;;;4.67;3.90;;;;;;;;;;5072846;28;20247;-95
2021/12/15 13:06:43;;;;;;;4.97;4.47;;;;;;;;;;5073114;28;20246;-96
2021/12/15 13:09:15;;;;;;;4.03;3.67;;;;;;;;;;5073073;28;20690;-95
2021/12/15 13:11:47;;;;;;;4.10;3.70;;;;;;;;;;5073083;28;20554;-94
2021/12/15 13:14:18;;;;;;;4.33;3.93;;;;;;;;;;5072829;28;20604;-95
2021/12/15 13:16:50;;;;;;;4.90;3.93;;;;;;;;;;5073113;28;20596;-94
2021/12/15 13:19:20;;;;;;;5.23;4.13;;;;;;;;;;5072786;28;20223;-95
2021/12/15 13:21:59;;;;;;;5.20;4.70;;;;;;;;;;5072618;28;20205;-95
2021/12/15 13:30:32;;;;;;;6.70;4.80;;;;;;;;;;5073190;28;20192;-95
2021/12/15 13:33:05;;;;;;;7.73;6.10;;;;;;;;;;5072692;28;20193;-95
2021/12/15 13:35:39;;;;;;;5.07;4.30;;;;;;;;;;5073076;28;20243;-95
2021/12/15 13:38:07;;;;;;;6.33;5.70;;;;;;;;;;5072566;28;20185;-95
2021/12/15 13:41:03;;;;;;;4.53;4.13;;;;;;;;;;5072466;28;20786;-95
2021/12/15 13:43:46;;;;;;;5.47;4.80;;;;;;;;;;5069181;28;20643;-95
2021/12/15 13:46:34;;;;;;;5.80;4.27;;;;;;;;;;5072444;28;20181;-94
2021/12/15 13:49:07;;;;;;;5.10;4.60;;;;;;;;;;5072937;28;20185;-94
2021/12/15 13:52:01;;;;;;;5.17;4.23;;;;;;;;;;5076931;28;20605;-95
2021/12/15 13:54:54;;;;;;;4.40;4.00;;;;;;;;;;5076562;28;20201;-94
2021/12/15 13:57:25;;;;;;;5.57;4.97;;;;;;;;;;5076303;28;20220;-94
2021/12/15 14:00:03;;;;;;;6.40;5.03;;;;;;;;;;5076392;28;20197;-95
2021/12/15 14:02:34;;;;;;;6.87;6.10;;;;;;;;;;5076273;28;20185;-95
2021/12/15 14:05:05;;;;;;;5.53;4.40;;;;;;;;;;5076373;28;20200;-94
2021/12/15 14:07:41;;;;;;;5.40;4.87;;;;;;;;;;5075949;28;20217;-95
2021/12/15 14:10:56;;;;;;;7.20;5.63;;;;;;;;;;5076076;28;20669;-94
2021/12/15 14:13:43;;;;;;;18.10;11.97;;;;;;;;;;5076325;28;20189;-93
2021/12/15 14:16:11;;;;;;;18.87;15.77;;;;;;;;;;5076019;28;20201;-93
2021/12/15 14:18:41;;;;;;;9.53;8.63;;;;;;;;;;5075915;28;20213;-94
2021/12/15 14:21:11;;;;;;;10.37;9.37;;;;;;;;;;5075605;28;20217;-94
2021/12/15 14:23:40;;;;;;;14.80;13.47;;;;;;;;;;5076399;28;20611;-95
2021/12/15 14:26:10;;;;;;;8.53;7.73;;;;;;;;;;5075888;28;20201;-95
2021/12/15 14:28:41;;;;;;;10.93;9.93;;;;;;;;;;5076251;28;20205;-94
2021/12/15 14:31:12;;;;;;;11.03;9.93;;;;;;;;;;5075693;28;20208;-94
2021/12/15 14:33:42;;;;;;;9.57;8.53;;;;;;;;;;5075450;28;20191;-94
2021/12/15 14:36:12;;;;;;;9.33;8.17;;;;;;;;;;5076315;28;20189;-94
2021/12/15 14:38:43;;;;;;;9.43;7.80;;;;;;;;;;5075577;28;20325;-94
2021/12/15 14:41:23;;;;;;;7.90;6.70;;;;;;;;;;5075175;28;20307;-94
2021/12/15 14:43:56;;;;;;;7.47;6.50;;;;;;;;;;5075298;28;20201;-95
2021/12/15 14:46:27;;;;;;;8.77;7.77;;;;;;;;;;5075842;28;20627;-94
2021/12/15 14:49:09;;;;;;;7.53;6.83;;;;;;;;;;5075683;28;20231;-93
2021/12/15 14:51:38;;;;;;;9.07;8.17;;;;;;;;;;5075821;28;20638;-95
2021/12/15 14:54:06;;;;;;;9.87;8.43;;;;;;;;;;5075858;28;20197;-93
2021/12/15 14:56:46;;;;;;;8.13;7.33;;;;;;;;;;5075095;28;20193;-94
2021/12/15 14:59:15;;;;;;;9.03;7.70;;;;;;;;;;5075127;28;20204;-94
2021/12/15 15:01:42;;;;;;;7.70;6.53;;;;;;;;;;5074206;28;20231;-95
2021/12/15 15:04:13;;;;;;;7.37;6.33;;;;;;;;;;5075254;28;20251;-94
2021/12/15 15:06:41;;;;;;;7.43;6.27;;;;;;;;;;5074831;28;20666;-93
2021/12/15 15:09:16;;;;;;;9.70;8.07;;;;;;;;;;5075165;28;20247;-94
2021/12/15 15:12:04;;;;;;;8.37;5.20;;;;;;;;;;5074727;28;20181;-94
2021/12/15 15:14:37;;;;;;;7.13;6.43;;;;;;;;;;5074690;28;20194;-94
2021/12/15 15:17:05;;;;;;;10.60;8.67;;;;;;;;;;5075048;28;20197;-94
2021/12/15 15:19:50;;;;;;;16.20;11.53;;;;;;;;;;5074969;28;20220;-94
2021/12/15 15:22:20;;;;;;;10.70;8.60;;;;;;;;;;5074809;28;20312;-94
2021/12/15 15:24:49;;;;;;;12.17;9.90;;;;;;;;;;5074438;28;20255;-94
2021/12/15 15:27:18;;;;;;;8.77;7.87;;;;;;;;;;5074674;28;20197;-94
2021/12/15 15:29:48;;;;;;;14.13;10.97;;;;;;;;;;5075191;28;20220;-93
2021/12/15 15:32:20;;;;;;;13.57;11.17;;;;;;;;;;5074660;28;20743;-94
2021/12/15 15:34:50;;;;;;;12.10;10.80;;;;;;;;;;5074295;28;20190;-94
2021/12/15 15:37:22;;;;;;;11.60;10.40;;;;;;;;;;5074250;28;20322;-94
2021/12/15 15:40:03;;;;;;;10.43;9.33;;;;;;;;;;5074754;28;20262;-94
2021/12/15 15:42:31;;;;;;;6.90;6.20;;;;;;;;;;5074512;28;20830;-93
2021/12/15 15:44:58;;;;;;;6.03;5.53;;;;;;;;;;5074486;28;20661;-94
2021/12/15 15:47:26;;;;;;;7.17;6.47;;;;;;;;;;5074278;28;20250;-93
2021/12/15 15:49:58;;;;;;;8.13;7.13;;;;;;;;;;5073924;28;20225;-93
2021/12/15 15:52:26;;;;;;;6.97;6.37;;;;;;;;;;5074544;28;20650;-93
2021/12/15 15:54:53;;;;;;;7.20;6.10;;;;;;;;;;5074200;28;20205;-94
2021/12/15 15:57:23;;;;;;;5.70;5.20;;;;;;;;;;5073781;28;20235;-94
2021/12/15 15:59:52;;;;;;;7.03;6.33;;;;;;;;;;5073766;28;20208;-94
2021/12/15 16:02:20;;;;;;;6.63;5.43;;;;;;;;;;5073682;28;20223;-94
2021/12/15 16:04:48;;;;;;;6.47;5.87;;;;;;;;;;5073922;28;20197;-94
2021/12/15 16:07:21;;;;;;;6.70;5.53;;;;;;;;;;5082310;28;20283;-93
2021/12/15 16:09:49;;;;;;;8.50;7.33;;;;;;;;;;5086492;28;20546;-94
2021/12/15 16:12:17;;;;;;;7.50;5.60;;;;;;;;;;5093207;28;20196;-94
2021/12/15 16:14:46;;;;;;;7.10;5.57;;;;;;;;;;5093920;28;20211;-94
2021/12/15 16:17:24;;;;;;;8.03;6.33;;;;;;;;;;5093953;28;20278;-94
2021/12/15 16:19:55;;;;;;;11.03;8.87;;;;;;;;;;5080276;28;20197;-95
2021/12/15 16:25:15;;;;;;;5.27;4.77;;;;;;;;;;5074554;28;20206;-96
2021/12/15 16:27:48;;;;;;;6.50;5.80;;;;;;;;;;5074848;28;20564;-93